createdAt,value
2019-01-17T00:01:30.660Z,100068.47
2019-01-17T00:06:56.332Z,100071.70
2019-01-17T00:12:37.816Z,100070.81
2019-01-17T00:18:04.033Z,100052.84
2019-01-17T00:23:29.579Z,100064.28
2019-01-17T00:28:53.415Z,100040.47
2019-01-17T00:34:26.021Z,100046.23
2019-01-17T00:39:56.908Z,100078.19
2019-01-17T00:45:17.932Z,100072.64
2019-01-17T00:50:37.081Z,100085.52
2019-01-17T00:56:03.821Z,100085.52
2019-01-17T01:01:29.188Z,100085.45
2019-01-17T01:07:09.189Z,100074.40
2019-01-17T01:12:30.216Z,100062.74
2019-01-17T01:17:55.470Z,100067.69
2019-01-17T01:23:23.493Z,100068.43
2019-01-17T01:29:01.585Z,100060.16
2019-01-17T01:34:24.879Z,100077.97
2019-01-17T01:40:04.582Z,100085.09
2019-01-17T01:45:39.170Z,100090.70
2019-01-17T01:51:13.347Z,100083.51
2019-01-17T01:56:20.235Z,100091.40
2019-01-17T02:01:29.503Z,100103.56
2019-01-17T02:06:36.427Z,100101.97
2019-01-17T02:11:49.135Z,100105.32
2019-01-17T02:16:59.646Z,100096.62
2019-01-17T02:22:10.775Z,100106.00
2019-01-17T02:27:19.802Z,100093.54
2019-01-17T02:32:29.911Z,100096.81
2019-01-17T02:37:42.057Z,100090.23
2019-01-17T02:42:49.612Z,100092.83
2019-01-17T02:47:58.595Z,100094.84
2019-01-17T02:53:06.970Z,100097.69
2019-01-17T02:58:18.854Z,100103.06
2019-01-17T03:03:26.678Z,100089.52
2019-01-17T03:08:35.299Z,100086.19
2019-01-17T03:13:47.100Z,100083.80
2019-01-17T03:19:03.214Z,100079.55
2019-01-17T03:24:10.666Z,100076.42
2019-01-17T03:29:19.692Z,100070.71
2019-01-17T03:34:35.178Z,100069.52
2019-01-17T03:39:45.391Z,100064.67
2019-01-17T03:44:55.303Z,100076.05
2019-01-17T03:50:06.317Z,100077.41
2019-01-17T03:55:17.058Z,100062.22
2019-01-17T04:00:30.979Z,100064.81
2019-01-17T04:05:44.072Z,100083.09
2019-01-17T04:10:55.009Z,100080.91
2019-01-17T04:16:04.005Z,100082.98
2019-01-17T04:21:16.274Z,100065.23
2019-01-17T04:26:26.268Z,100063.38
2019-01-17T04:31:41.527Z,100049.69
2019-01-17T04:36:49.154Z,100045.75
2019-01-17T04:42:01.936Z,100044.61
2019-01-17T04:47:13.639Z,100039.20
2019-01-17T04:52:26.071Z,100031.62
2019-01-17T04:57:32.937Z,100027.41
2019-01-17T05:02:44.087Z,100018.88
2019-01-17T05:07:57.831Z,100025.84
2019-01-17T05:13:09.431Z,100035.73
2019-01-17T05:19:22.840Z,100043.03
2019-01-17T05:24:35.624Z,100051.30
2019-01-17T05:29:46.793Z,100047.56
2019-01-17T05:34:59.891Z,100045.94
2019-01-17T05:40:15.336Z,100039.46
2019-01-17T05:45:28.997Z,100042.44
2019-01-17T05:50:36.324Z,100042.63
2019-01-17T05:55:42.707Z,100035.95
2019-01-17T06:00:55.149Z,100039.46
2019-01-17T06:06:07.656Z,100030.97
2019-01-17T06:11:17.546Z,100029.87
2019-01-17T06:16:45.801Z,100032.88
2019-01-17T06:21:59.619Z,100026.56
2019-01-17T06:27:12.355Z,100024.10
2019-01-17T06:32:24.621Z,100019.88
2019-01-17T06:37:44.962Z,100016.45
2019-01-17T06:42:57.094Z,100015.64
2019-01-17T06:48:10.118Z,100023.06
2019-01-17T06:53:17.996Z,100016.52
2019-01-17T06:58:27.153Z,100007.86
2019-01-17T07:03:39.695Z,100013.44
2019-01-17T07:08:52.906Z,100013.37
2019-01-17T07:14:05.643Z,100017.16
2019-01-17T07:19:14.825Z,100011.97
2019-01-17T07:24:27.300Z,100006.75
2019-01-17T07:29:38.322Z,100013.69
2019-01-17T07:34:50.469Z,100020.55
2019-01-17T07:40:01.648Z,100021.09
2019-01-17T07:45:12.827Z,100018.65
2019-01-17T07:50:21.131Z,100026.61
2019-01-17T07:55:29.615Z,100022.48
2019-01-17T08:00:44.299Z,100024.79
2019-01-17T08:05:54.275Z,100038.50
2019-01-17T08:11:02.433Z,100036.61
2019-01-17T08:16:11.468Z,100029.63
2019-01-17T08:21:24.044Z,100034.18
2019-01-17T08:26:33.993Z,100022.77
2019-01-17T08:31:44.749Z,100018.87
2019-01-17T08:36:56.337Z,100028.34
2019-01-17T08:42:05.592Z,100031.74
2019-01-17T08:47:15.946Z,100035.00
2019-01-17T08:52:27.202Z,100047.45
2019-01-17T08:57:56.921Z,100034.55
2019-01-17T09:03:04.102Z,100051.53
2019-01-17T09:08:14.568Z,100057.15
2019-01-17T09:13:26.250Z,100056.07
2019-01-17T09:18:36.493Z,100063.20
2019-01-17T09:23:47.335Z,100071.09
2019-01-17T09:28:56.307Z,100080.98
2019-01-17T09:34:08.812Z,100085.54
2019-01-17T09:39:22.470Z,100094.00
2019-01-17T09:44:35.081Z,100091.90
2019-01-17T09:49:49.421Z,100084.05
2019-01-17T09:54:59.270Z,100084.20
2019-01-17T10:00:09.210Z,100076.83
2019-01-17T10:05:19.222Z,100082.82
2019-01-17T10:10:27.554Z,100092.73
2019-01-17T10:15:59.849Z,100082.61
2019-01-17T10:21:57.540Z,100067.50
2019-01-17T10:27:28.865Z,100066.11
2019-01-17T10:33:15.201Z,100068.22
2019-01-17T10:38:43.941Z,100066.28
2019-01-17T10:44:19.809Z,100078.84
2019-01-17T10:50:00.091Z,100069.61
2019-01-17T10:55:56.548Z,100068.14
2019-01-17T11:01:26.328Z,100112.31
2019-01-17T11:07:15.203Z,100083.39
2019-01-17T11:13:33.156Z,100084.01
2019-01-17T11:19:18.058Z,100087.47
2019-01-17T11:24:45.131Z,100089.77
2019-01-17T11:30:23.622Z,100098.04
2019-01-17T11:36:16.813Z,100101.26
2019-01-17T11:42:20.936Z,100119.27
2019-01-17T11:48:05.802Z,100138.54
2019-01-17T11:53:49.319Z,100153.13
2019-01-17T11:59:23.055Z,100149.45
2019-01-17T12:04:35.688Z,100145.22
2019-01-17T12:09:45.493Z,100145.68
2019-01-17T12:14:54.638Z,100150.06
2019-01-17T12:20:09.193Z,100156.95
2019-01-17T12:25:22.562Z,100165.97
2019-01-17T12:30:31.501Z,100158.78
2019-01-17T12:35:42.917Z,100164.83
2019-01-17T12:40:58.319Z,100169.39
2019-01-17T12:46:13.860Z,100169.70
2019-01-17T12:51:23.813Z,100179.42
2019-01-17T12:56:31.170Z,100186.38
2019-01-17T13:01:41.112Z,100191.72
2019-01-17T13:06:52.428Z,100191.94
2019-01-17T13:12:04.133Z,100201.56
2019-01-17T13:17:11.974Z,100201.62
2019-01-17T13:22:23.593Z,100197.14
2019-01-17T13:27:33.223Z,100211.97
2019-01-17T13:32:41.824Z,100217.69
2019-01-17T13:37:56.855Z,100225.17
2019-01-17T13:43:05.029Z,100228.50
2019-01-17T13:48:15.044Z,100235.22
2019-01-17T13:53:24.032Z,100253.56
2019-01-17T13:58:30.928Z,100252.69
2019-01-17T14:03:43.624Z,100263.06
2019-01-17T14:08:52.083Z,100271.84
2019-01-17T14:14:08.227Z,100281.08
2019-01-17T14:19:18.498Z,100287.84
2019-01-17T14:24:27.533Z,100295.91
2019-01-17T14:29:37.394Z,100304.35
2019-01-17T14:34:46.351Z,100314.08
2019-01-17T14:39:54.463Z,100324.02
2019-01-17T14:45:04.617Z,100331.47
2019-01-17T14:50:24.203Z,100327.73
2019-01-17T14:55:36.835Z,100350.03
2019-01-17T15:00:49.254Z,100355.13
2019-01-17T15:06:00.163Z,100356.08
2019-01-17T15:11:12.471Z,100371.78
2019-01-17T15:16:25.471Z,100382.70
2019-01-17T15:21:35.313Z,100383.39
2019-01-17T15:26:47.860Z,100399.08
2019-01-17T15:32:03.236Z,100402.31
2019-01-17T15:37:16.753Z,100421.64
2019-01-17T15:42:30.216Z,100434.23
2019-01-17T15:47:36.450Z,100449.41
2019-01-17T15:52:44.532Z,100461.67
2019-01-17T15:57:54.346Z,100465.33
2019-01-17T16:03:06.875Z,100476.64
2019-01-17T16:08:19.850Z,100489.66
2019-01-17T16:13:33.509Z,100493.67
2019-01-17T16:18:43.654Z,100507.56
2019-01-17T16:23:53.531Z,100508.23
2019-01-17T16:29:07.889Z,100521.36
2019-01-17T16:34:17.732Z,100542.99
2019-01-17T16:39:25.483Z,100571.91
2019-01-17T16:44:32.361Z,100576.58
2019-01-17T16:49:42.646Z,100574.78
2019-01-17T16:54:51.758Z,100570.25
2019-01-17T17:00:04.022Z,100601.20
2019-01-17T17:05:16.291Z,100605.34
2019-01-17T17:10:26.055Z,100621.06
2019-01-17T17:15:38.849Z,100639.62
2019-01-17T17:20:46.170Z,100637.02
2019-01-17T17:26:01.673Z,100650.31
2019-01-17T17:31:12.723Z,100651.88
2019-01-17T17:36:26.440Z,100664.06
2019-01-17T17:41:37.257Z,100670.16
2019-01-17T17:52:35.032Z,100686.21
2019-01-17T17:57:47.534Z,100702.26
2019-01-17T18:02:54.947Z,100709.17
2019-01-17T18:08:05.792Z,100723.52
2019-01-17T18:13:18.360Z,100740.41
2019-01-17T18:18:28.257Z,100761.80
2019-01-17T18:23:38.219Z,100801.19
2019-01-17T18:28:49.135Z,100803.20
2019-01-17T18:33:59.090Z,100807.20
2019-01-17T18:39:14.545Z,100806.45
2019-01-17T18:44:29.804Z,100811.71
2019-01-17T18:49:44.234Z,100802.21
2019-01-17T18:54:58.629Z,100816.89
2019-01-17T19:00:11.738Z,100821.13
2019-01-17T19:05:24.870Z,100838.44
2019-01-17T19:10:38.501Z,100850.92
2019-01-17T19:15:52.110Z,100871.27
2019-01-17T19:21:03.477Z,100870.45
2019-01-17T19:26:18.852Z,100879.12
2019-01-17T19:31:26.948Z,100883.07
2019-01-17T19:36:36.868Z,100893.89
2019-01-17T19:41:45.162Z,100902.50
2019-01-17T19:46:51.331Z,100915.87
2019-01-17T19:52:05.733Z,100934.38
2019-01-17T19:57:19.064Z,100943.89
2019-01-17T20:02:29.756Z,100940.91
2019-01-17T20:07:41.508Z,100952.96
2019-01-17T20:12:56.005Z,100967.64
2019-01-17T20:18:06.129Z,100974.12
2019-01-17T20:23:18.791Z,100984.88
2019-01-17T20:28:26.981Z,100998.69
2019-01-17T20:33:36.092Z,101008.62
2019-01-17T20:38:43.125Z,101018.95
2019-01-17T20:43:53.929Z,101023.70
2019-01-17T20:49:07.949Z,101032.75
2019-01-17T20:54:20.046Z,101041.38
2019-01-17T20:59:29.066Z,101056.86
2019-01-17T21:04:38.305Z,101062.91
2019-01-17T21:09:45.985Z,101075.81
2019-01-17T21:14:59.887Z,101093.48
2019-01-17T21:20:09.916Z,101087.87
2019-01-17T21:25:22.216Z,101101.23
2019-01-17T21:30:35.757Z,101109.41
2019-01-17T21:35:47.046Z,101115.44
2019-01-17T21:40:57.824Z,101112.44
2019-01-17T21:46:09.557Z,101128.37
2019-01-17T21:51:22.270Z,101153.34
2019-01-17T21:56:34.952Z,101161.10
2019-01-17T22:01:45.666Z,101174.02
2019-01-17T22:06:56.417Z,101181.78
2019-01-17T22:12:04.514Z,101201.59
2019-01-17T22:17:16.225Z,101202.45
2019-01-17T22:22:26.099Z,101213.64
2019-01-17T22:27:38.815Z,101237.73
2019-01-17T22:32:53.124Z,101239.45
2019-01-17T22:38:03.078Z,101247.66
2019-01-17T22:43:16.642Z,101262.71
2019-01-17T22:48:31.081Z,101268.77
2019-01-17T22:53:44.770Z,101282.17
2019-01-17T22:58:55.080Z,101287.78
2019-01-17T23:04:10.590Z,101284.72
2019-01-17T23:09:24.136Z,101287.28
2019-01-17T23:14:34.363Z,101294.55
2019-01-17T23:19:44.340Z,101310.05
2019-01-17T23:24:54.605Z,101320.03
2019-01-17T23:30:04.454Z,101327.30
2019-01-17T23:35:13.376Z,101334.15
2019-01-17T23:40:24.776Z,101332.86
2019-01-17T23:45:36.452Z,101328.03
2019-01-17T23:50:46.277Z,101326.16
2019-01-17T23:56:00.181Z,101330.76
